Terminal Aerodrome Forecast
Issued by NWS

Home | Current Version | Previous Version | Graphics & Text | Print | Product List | Glossary On
Versions: 1 2 3 4 5 6 7 8 9 10 11 12 13 14 15 16 17
571
FTUS43 KGRB 221409 AAA
TAFAUW
TAF AMD
KAUW 221409Z 2214/2312 25005KT 6SM BR OVC006
      TEMPO 2214/2216 SCT006 OVC015
     FM221600 16004KT P6SM BKN015
     FM222100 23005KT P6SM BKN035 PROB30 2223/2301 5SM -TSRA
      BKN025CB
     FM230100 29005KT P6SM VCTS BKN035CB
     FM230400 30004KT 5SM BR VCSH BKN030
     FM230900 29004KT 3SM BR SCT030=

USA.gov is the U.S. government's official web portal to all federal, state and local government web resources and services.